sensor_id;sensor_type;location;lat;lon;timestamp;P1;durP1;ratioP1;P2;durP2;ratioP2
739;SDS011;354;42.694;23.336;2023-08-20T00:01:25;10.48;;;9.57;;
739;SDS011;354;42.694;23.336;2023-08-20T00:03:51;10.10;;;9.20;;
739;SDS011;354;42.694;23.336;2023-08-20T00:06:17;11.50;;;10.40;;
739;SDS011;354;42.694;23.336;2023-08-20T00:08:43;10.77;;;9.88;;
739;SDS011;354;42.694;23.336;2023-08-20T00:11:08;12.25;;;9.25;;
739;SDS011;354;42.694;23.336;2023-08-20T00:13:34;11.32;;;10.32;;
739;SDS011;354;42.694;23.336;2023-08-20T00:16:00;10.50;;;9.70;;
739;SDS011;354;42.694;23.336;2023-08-20T00:18:25;12.02;;;10.82;;
739;SDS011;354;42.694;23.336;2023-08-20T00:20:51;11.98;;;10.80;;
739;SDS011;354;42.694;23.336;2023-08-20T00:23:17;11.15;;;10.13;;
739;SDS011;354;42.694;23.336;2023-08-20T00:25:43;10.93;;;9.93;;
739;SDS011;354;42.694;23.336;2023-08-20T00:28:08;12.35;;;11.27;;
739;SDS011;354;42.694;23.336;2023-08-20T00:30:34;11.40;;;10.35;;
739;SDS011;354;42.694;23.336;2023-08-20T00:32:59;11.23;;;10.15;;
739;SDS011;354;42.694;23.336;2023-08-20T00:35:24;11.35;;;10.45;;
739;SDS011;354;42.694;23.336;2023-08-20T00:37:49;11.13;;;10.23;;
739;SDS011;354;42.694;23.336;2023-08-20T00:40:15;12.38;;;11.30;;
739;SDS011;354;42.694;23.336;2023-08-20T00:42:40;12.30;;;11.30;;
739;SDS011;354;42.694;23.336;2023-08-20T00:45:05;11.93;;;10.80;;
739;SDS011;354;42.694;23.336;2023-08-20T00:47:30;12.40;;;11.13;;
739;SDS011;354;42.694;23.336;2023-08-20T00:49:56;11.70;;;10.60;;
739;SDS011;354;42.694;23.336;2023-08-20T00:52:21;11.05;;;10.15;;
739;SDS011;354;42.694;23.336;2023-08-20T00:54:47;12.02;;;10.90;;
739;SDS011;354;42.694;23.336;2023-08-20T00:57:17;11.00;;;10.07;;
739;SDS011;354;42.694;23.336;2023-08-20T00:59:43;11.77;;;10.77;;
739;SDS011;354;42.694;23.336;2023-08-20T01:02:08;12.32;;;11.00;;
739;SDS011;354;42.694;23.336;2023-08-20T01:04:33;13.00;;;11.55;;
739;SDS011;354;42.694;23.336;2023-08-20T01:07:20;11.63;;;10.43;;
739;SDS011;354;42.694;23.336;2023-08-20T01:12:33;10.90;;;10.00;;
739;SDS011;354;42.694;23.336;2023-08-20T01:14:59;14.25;;;11.45;;
739;SDS011;354;42.694;23.336;2023-08-20T01:17:24;11.98;;;10.98;;
739;SDS011;354;42.694;23.336;2023-08-20T01:19:49;11.63;;;10.50;;
739;SDS011;354;42.694;23.336;2023-08-20T01:22:28;12.63;;;11.52;;
739;SDS011;354;42.694;23.336;2023-08-20T01:25:02;12.00;;;10.90;;
739;SDS011;354;42.694;23.336;2023-08-20T01:30:13;11.88;;;10.88;;
739;SDS011;354;42.694;23.336;2023-08-20T01:32:39;12.00;;;11.00;;
739;SDS011;354;42.694;23.336;2023-08-20T01:35:07;11.38;;;10.35;;
739;SDS011;354;42.694;23.336;2023-08-20T01:37:34;11.82;;;10.82;;
739;SDS011;354;42.694;23.336;2023-08-20T01:39:59;13.18;;;12.00;;
739;SDS011;354;42.694;23.336;2023-08-20T01:42:24;12.13;;;11.18;;
739;SDS011;354;42.694;23.336;2023-08-20T01:44:50;12.45;;;11.32;;
739;SDS011;354;42.694;23.336;2023-08-20T01:47:15;15.18;;;11.40;;
739;SDS011;354;42.694;23.336;2023-08-20T01:49:40;12.77;;;11.48;;
739;SDS011;354;42.694;23.336;2023-08-20T01:52:05;13.43;;;12.23;;
739;SDS011;354;42.694;23.336;2023-08-20T01:54:30;16.00;;;11.63;;
739;SDS011;354;42.694;23.336;2023-08-20T01:56:56;12.10;;;11.15;;
739;SDS011;354;42.694;23.336;2023-08-20T01:59:21;12.73;;;11.55;;
739;SDS011;354;42.694;23.336;2023-08-20T02:01:47;12.95;;;11.75;;
739;SDS011;354;42.694;23.336;2023-08-20T02:04:12;12.27;;;11.18;;
739;SDS011;354;42.694;23.336;2023-08-20T02:06:38;12.63;;;11.43;;
739;SDS011;354;42.694;23.336;2023-08-20T02:09:03;12.85;;;11.55;;
739;SDS011;354;42.694;23.336;2023-08-20T02:11:29;14.30;;;12.95;;
739;SDS011;354;42.694;23.336;2023-08-20T02:13:54;14.68;;;13.18;;
739;SDS011;354;42.694;23.336;2023-08-20T02:16:20;12.40;;;11.23;;
739;SDS011;354;42.694;23.336;2023-08-20T02:18:45;13.88;;;12.50;;
739;SDS011;354;42.694;23.336;2023-08-20T02:21:10;12.10;;;10.85;;
739;SDS011;354;42.694;23.336;2023-08-20T02:23:35;13.15;;;11.95;;
739;SDS011;354;42.694;23.336;2023-08-20T02:26:00;13.32;;;11.98;;
739;SDS011;354;42.694;23.336;2023-08-20T02:28:26;13.27;;;12.07;;
739;SDS011;354;42.694;23.336;2023-08-20T02:30:51;13.32;;;12.05;;
739;SDS011;354;42.694;23.336;2023-08-20T02:33:17;12.60;;;11.50;;
739;SDS011;354;42.694;23.336;2023-08-20T02:35:42;13.90;;;12.45;;
739;SDS011;354;42.694;23.336;2023-08-20T02:38:07;12.50;;;11.43;;
739;SDS011;354;42.694;23.336;2023-08-20T02:40:38;15.35;;;12.48;;
739;SDS011;354;42.694;23.336;2023-08-20T02:43:03;13.15;;;11.88;;
739;SDS011;354;42.694;23.336;2023-08-20T02:45:29;12.93;;;11.85;;
739;SDS011;354;42.694;23.336;2023-08-20T02:47:54;13.88;;;12.40;;
739;SDS011;354;42.694;23.336;2023-08-20T02:50:19;13.23;;;11.98;;
739;SDS011;354;42.694;23.336;2023-08-20T02:52:44;13.02;;;11.82;;
739;SDS011;354;42.694;23.336;2023-08-20T02:55:10;12.77;;;11.77;;
739;SDS011;354;42.694;23.336;2023-08-20T02:57:35;13.95;;;12.35;;
739;SDS011;354;42.694;23.336;2023-08-20T03:00:00;13.43;;;12.05;;
739;SDS011;354;42.694;23.336;2023-08-20T03:02:26;13.45;;;12.30;;
739;SDS011;354;42.694;23.336;2023-08-20T03:04:51;19.20;;;13.35;;
739;SDS011;354;42.694;23.336;2023-08-20T03:07:16;13.15;;;11.73;;
739;SDS011;354;42.694;23.336;2023-08-20T03:09:41;13.50;;;12.32;;
739;SDS011;354;42.694;23.336;2023-08-20T03:12:07;13.57;;;12.35;;
739;SDS011;354;42.694;23.336;2023-08-20T03:14:32;13.50;;;12.23;;
739;SDS011;354;42.694;23.336;2023-08-20T03:16:57;13.68;;;12.23;;
739;SDS011;354;42.694;23.336;2023-08-20T03:19:22;14.43;;;12.95;;
739;SDS011;354;42.694;23.336;2023-08-20T03:21:47;15.68;;;12.75;;
739;SDS011;354;42.694;23.336;2023-08-20T03:24:13;13.68;;;12.32;;
739;SDS011;354;42.694;23.336;2023-08-20T03:26:38;13.95;;;12.65;;
739;SDS011;354;42.694;23.336;2023-08-20T03:29:03;13.77;;;12.40;;
739;SDS011;354;42.694;23.336;2023-08-20T03:31:29;14.00;;;12.70;;
739;SDS011;354;42.694;23.336;2023-08-20T03:33:54;14.40;;;13.10;;
739;SDS011;354;42.694;23.336;2023-08-20T03:36:19;14.13;;;12.68;;
739;SDS011;354;42.694;23.336;2023-08-20T03:38:45;14.38;;;13.10;;
739;SDS011;354;42.694;23.336;2023-08-20T03:41:10;14.20;;;12.95;;
739;SDS011;354;42.694;23.336;2023-08-20T03:43:35;14.15;;;12.85;;
739;SDS011;354;42.694;23.336;2023-08-20T03:46:01;14.85;;;13.15;;
739;SDS011;354;42.694;23.336;2023-08-20T03:48:26;14.93;;;13.57;;
739;SDS011;354;42.694;23.336;2023-08-20T03:50:51;14.05;;;12.65;;
739;SDS011;354;42.694;23.336;2023-08-20T03:53:16;13.52;;;12.32;;
739;SDS011;354;42.694;23.336;2023-08-20T03:55:46;16.65;;;14.95;;
739;SDS011;354;42.694;23.336;2023-08-20T03:58:12;14.77;;;13.48;;
739;SDS011;354;42.694;23.336;2023-08-20T04:00:37;14.65;;;13.30;;
739;SDS011;354;42.694;23.336;2023-08-20T04:03:02;14.40;;;13.00;;
739;SDS011;354;42.694;23.336;2023-08-20T04:05:27;15.35;;;14.05;;
739;SDS011;354;42.694;23.336;2023-08-20T04:07:53;14.07;;;12.95;;
739;SDS011;354;42.694;23.336;2023-08-20T04:10:18;14.00;;;12.60;;
739;SDS011;354;42.694;23.336;2023-08-20T04:12:43;15.77;;;14.10;;
739;SDS011;354;42.694;23.336;2023-08-20T04:15:08;14.48;;;13.07;;
739;SDS011;354;42.694;23.336;2023-08-20T04:17:34;29.60;;;15.13;;
739;SDS011;354;42.694;23.336;2023-08-20T04:19:59;14.32;;;13.02;;
739;SDS011;354;42.694;23.336;2023-08-20T04:22:24;14.48;;;13.25;;
739;SDS011;354;42.694;23.336;2023-08-20T04:24:50;15.63;;;14.18;;
739;SDS011;354;42.694;23.336;2023-08-20T04:27:15;14.52;;;13.20;;
739;SDS011;354;42.694;23.336;2023-08-20T04:29:40;14.32;;;13.02;;
739;SDS011;354;42.694;23.336;2023-08-20T04:32:06;16.27;;;14.02;;
739;SDS011;354;42.694;23.336;2023-08-20T04:34:31;14.77;;;13.48;;
739;SDS011;354;42.694;23.336;2023-08-20T04:36:57;13.82;;;12.63;;
739;SDS011;354;42.694;23.336;2023-08-20T04:39:22;14.40;;;13.05;;
739;SDS011;354;42.694;23.336;2023-08-20T04:41:47;14.82;;;13.52;;
739;SDS011;354;42.694;23.336;2023-08-20T04:44:12;14.15;;;12.85;;
739;SDS011;354;42.694;23.336;2023-08-20T04:46:38;15.30;;;13.48;;
739;SDS011;354;42.694;23.336;2023-08-20T04:49:03;13.77;;;12.30;;
739;SDS011;354;42.694;23.336;2023-08-20T04:51:28;14.25;;;13.02;;
739;SDS011;354;42.694;23.336;2023-08-20T04:53:53;13.68;;;12.35;;
739;SDS011;354;42.694;23.336;2023-08-20T04:56:18;14.10;;;12.68;;
739;SDS011;354;42.694;23.336;2023-08-20T04:58:44;13.35;;;12.05;;
739;SDS011;354;42.694;23.336;2023-08-20T05:01:09;13.48;;;12.10;;
739;SDS011;354;42.694;23.336;2023-08-20T05:03:34;12.77;;;11.52;;
739;SDS011;354;42.694;23.336;2023-08-20T05:05:59;12.77;;;11.63;;
739;SDS011;354;42.694;23.336;2023-08-20T05:08:25;13.02;;;11.93;;
739;SDS011;354;42.694;23.336;2023-08-20T05:10:50;14.10;;;10.70;;
739;SDS011;354;42.694;23.336;2023-08-20T05:13:16;12.05;;;11.15;;
739;SDS011;354;42.694;23.336;2023-08-20T05:15:41;13.18;;;11.98;;
739;SDS011;354;42.694;23.336;2023-08-20T05:18:07;12.18;;;10.98;;
739;SDS011;354;42.694;23.336;2023-08-20T05:20:32;13.30;;;11.85;;
739;SDS011;354;42.694;23.336;2023-08-20T05:22:57;12.57;;;11.38;;
739;SDS011;354;42.694;23.336;2023-08-20T05:25:22;14.38;;;11.85;;
739;SDS011;354;42.694;23.336;2023-08-20T05:27:47;21.77;;;11.43;;
739;SDS011;354;42.694;23.336;2023-08-20T05:30:13;12.13;;;10.95;;
739;SDS011;354;42.694;23.336;2023-08-20T05:32:38;11.82;;;10.93;;
739;SDS011;354;42.694;23.336;2023-08-20T05:35:03;12.48;;;11.15;;
739;SDS011;354;42.694;23.336;2023-08-20T05:37:29;12.38;;;11.27;;
739;SDS011;354;42.694;23.336;2023-08-20T05:39:54;11.95;;;10.88;;
739;SDS011;354;42.694;23.336;2023-08-20T05:42:20;12.30;;;11.30;;
739;SDS011;354;42.694;23.336;2023-08-20T05:44:45;13.07;;;11.88;;
739;SDS011;354;42.694;23.336;2023-08-20T05:47:10;13.52;;;12.27;;
739;SDS011;354;42.694;23.336;2023-08-20T05:49:35;12.63;;;11.45;;
739;SDS011;354;42.694;23.336;2023-08-20T05:52:01;13.07;;;11.80;;
739;SDS011;354;42.694;23.336;2023-08-20T05:54:26;13.88;;;12.35;;
739;SDS011;354;42.694;23.336;2023-08-20T05:56:51;13.13;;;11.98;;
739;SDS011;354;42.694;23.336;2023-08-20T05:59:16;12.70;;;11.50;;
739;SDS011;354;42.694;23.336;2023-08-20T06:01:41;12.88;;;11.65;;
739;SDS011;354;42.694;23.336;2023-08-20T06:04:08;12.82;;;11.63;;
739;SDS011;354;42.694;23.336;2023-08-20T06:06:34;11.95;;;10.95;;
739;SDS011;354;42.694;23.336;2023-08-20T06:08:59;12.80;;;11.70;;
739;SDS011;354;42.694;23.336;2023-08-20T06:11:24;12.77;;;11.55;;
739;SDS011;354;42.694;23.336;2023-08-20T06:13:50;14.35;;;11.27;;
739;SDS011;354;42.694;23.336;2023-08-20T06:16:15;12.70;;;11.52;;
739;SDS011;354;42.694;23.336;2023-08-20T06:18:40;19.10;;;12.32;;
739;SDS011;354;42.694;23.336;2023-08-20T06:21:11;12.77;;;11.52;;
739;SDS011;354;42.694;23.336;2023-08-20T06:23:36;13.45;;;12.00;;
739;SDS011;354;42.694;23.336;2023-08-20T06:26:01;13.05;;;11.70;;
739;SDS011;354;42.694;23.336;2023-08-20T06:28:27;12.85;;;11.55;;
739;SDS011;354;42.694;23.336;2023-08-20T06:30:52;12.90;;;11.70;;
739;SDS011;354;42.694;23.336;2023-08-20T06:33:17;14.18;;;12.75;;
739;SDS011;354;42.694;23.336;2023-08-20T06:35:42;13.05;;;11.82;;
739;SDS011;354;42.694;23.336;2023-08-20T06:38:07;13.07;;;11.77;;
739;SDS011;354;42.694;23.336;2023-08-20T06:40:33;13.13;;;11.98;;
739;SDS011;354;42.694;23.336;2023-08-20T06:42:58;13.23;;;12.10;;
739;SDS011;354;42.694;23.336;2023-08-20T06:45:23;13.68;;;12.30;;
739;SDS011;354;42.694;23.336;2023-08-20T06:47:49;14.05;;;12.35;;
739;SDS011;354;42.694;23.336;2023-08-20T06:50:14;12.77;;;11.68;;
739;SDS011;354;42.694;23.336;2023-08-20T06:52:39;13.25;;;12.07;;
739;SDS011;354;42.694;23.336;2023-08-20T06:55:04;13.60;;;12.30;;
739;SDS011;354;42.694;23.336;2023-08-20T06:57:30;14.38;;;12.93;;
739;SDS011;354;42.694;23.336;2023-08-20T06:59:55;13.25;;;12.05;;
739;SDS011;354;42.694;23.336;2023-08-20T07:02:20;13.50;;;12.45;;
739;SDS011;354;42.694;23.336;2023-08-20T07:04:45;13.60;;;12.25;;
739;SDS011;354;42.694;23.336;2023-08-20T07:07:11;12.57;;;11.57;;
739;SDS011;354;42.694;23.336;2023-08-20T07:09:36;12.88;;;11.77;;
739;SDS011;354;42.694;23.336;2023-08-20T07:12:03;13.05;;;11.63;;
739;SDS011;354;42.694;23.336;2023-08-20T07:14:28;12.27;;;11.25;;
739;SDS011;354;42.694;23.336;2023-08-20T07:16:53;13.27;;;12.27;;
739;SDS011;354;42.694;23.336;2023-08-20T07:19:19;12.55;;;11.60;;
739;SDS011;354;42.694;23.336;2023-08-20T07:21:44;11.98;;;10.88;;
739;SDS011;354;42.694;23.336;2023-08-20T07:24:09;14.10;;;12.80;;
739;SDS011;354;42.694;23.336;2023-08-20T07:26:34;12.88;;;11.85;;
739;SDS011;354;42.694;23.336;2023-08-20T07:29:00;13.27;;;12.18;;
739;SDS011;354;42.694;23.336;2023-08-20T07:31:25;12.57;;;11.60;;
739;SDS011;354;42.694;23.336;2023-08-20T07:33:51;12.90;;;11.80;;
739;SDS011;354;42.694;23.336;2023-08-20T07:36:17;12.18;;;10.70;;
739;SDS011;354;42.694;23.336;2023-08-20T07:38:42;11.60;;;10.60;;
739;SDS011;354;42.694;23.336;2023-08-20T07:41:11;11.73;;;10.73;;
739;SDS011;354;42.694;23.336;2023-08-20T07:43:39;12.40;;;11.40;;
739;SDS011;354;42.694;23.336;2023-08-20T07:46:06;13.15;;;12.00;;
739;SDS011;354;42.694;23.336;2023-08-20T07:48:32;16.85;;;12.40;;
739;SDS011;354;42.694;23.336;2023-08-20T07:50:57;12.02;;;10.85;;
739;SDS011;354;42.694;23.336;2023-08-20T07:53:22;11.90;;;10.80;;
739;SDS011;354;42.694;23.336;2023-08-20T07:55:47;16.05;;;13.82;;
739;SDS011;354;42.694;23.336;2023-08-20T07:58:12;10.43;;;9.80;;
739;SDS011;354;42.694;23.336;2023-08-20T08:00:38;11.55;;;10.40;;
739;SDS011;354;42.694;23.336;2023-08-20T08:03:03;10.80;;;9.73;;
739;SDS011;354;42.694;23.336;2023-08-20T08:05:28;10.80;;;9.80;;
739;SDS011;354;42.694;23.336;2023-08-20T08:07:53;10.95;;;9.98;;
739;SDS011;354;42.694;23.336;2023-08-20T08:10:19;12.15;;;11.05;;
739;SDS011;354;42.694;23.336;2023-08-20T08:12:44;11.95;;;10.95;;
739;SDS011;354;42.694;23.336;2023-08-20T08:15:09;10.93;;;10.13;;
739;SDS011;354;42.694;23.336;2023-08-20T08:17:34;11.85;;;10.90;;
739;SDS011;354;42.694;23.336;2023-08-20T08:20:00;10.23;;;9.32;;
739;SDS011;354;42.694;23.336;2023-08-20T08:22:25;11.10;;;10.15;;
739;SDS011;354;42.694;23.336;2023-08-20T08:24:50;11.10;;;10.30;;
739;SDS011;354;42.694;23.336;2023-08-20T08:27:15;11.15;;;10.15;;
739;SDS011;354;42.694;23.336;2023-08-20T08:29:41;15.70;;;14.27;;
739;SDS011;354;42.694;23.336;2023-08-20T08:32:06;11.68;;;9.93;;
739;SDS011;354;42.694;23.336;2023-08-20T08:34:31;10.90;;;10.05;;
739;SDS011;354;42.694;23.336;2023-08-20T08:36:56;10.48;;;9.75;;
739;SDS011;354;42.694;23.336;2023-08-20T08:39:22;11.65;;;9.85;;
739;SDS011;354;42.694;23.336;2023-08-20T08:41:49;10.20;;;9.32;;
739;SDS011;354;42.694;23.336;2023-08-20T08:44:15;10.32;;;9.43;;
739;SDS011;354;42.694;23.336;2023-08-20T08:46:41;9.13;;;8.43;;
739;SDS011;354;42.694;23.336;2023-08-20T08:49:06;9.80;;;8.93;;
739;SDS011;354;42.694;23.336;2023-08-20T08:51:33;9.13;;;8.38;;
739;SDS011;354;42.694;23.336;2023-08-20T08:53:59;10.63;;;9.73;;
739;SDS011;354;42.694;23.336;2023-08-20T08:56:25;9.98;;;9.27;;
739;SDS011;354;42.694;23.336;2023-08-20T08:58:50;9.13;;;8.52;;
739;SDS011;354;42.694;23.336;2023-08-20T09:01:15;10.48;;;9.48;;
739;SDS011;354;42.694;23.336;2023-08-20T09:03:40;9.88;;;9.07;;
739;SDS011;354;42.694;23.336;2023-08-20T09:06:09;9.30;;;8.65;;
739;SDS011;354;42.694;23.336;2023-08-20T09:08:34;10.70;;;9.90;;
739;SDS011;354;42.694;23.336;2023-08-20T09:11:00;11.05;;;9.95;;
739;SDS011;354;42.694;23.336;2023-08-20T09:13:32;12.63;;;11.45;;
739;SDS011;354;42.694;23.336;2023-08-20T09:15:57;9.70;;;8.93;;
739;SDS011;354;42.694;23.336;2023-08-20T09:18:22;9.95;;;9.02;;
739;SDS011;354;42.694;23.336;2023-08-20T09:20:48;9.07;;;8.18;;
739;SDS011;354;42.694;23.336;2023-08-20T09:23:16;8.30;;;7.60;;
739;SDS011;354;42.694;23.336;2023-08-20T09:25:42;7.90;;;7.40;;
739;SDS011;354;42.694;23.336;2023-08-20T09:28:08;8.35;;;7.75;;
739;SDS011;354;42.694;23.336;2023-08-20T09:30:33;9.23;;;8.57;;
739;SDS011;354;42.694;23.336;2023-08-20T09:33:03;9.73;;;8.85;;
739;SDS011;354;42.694;23.336;2023-08-20T09:35:28;9.55;;;8.82;;
739;SDS011;354;42.694;23.336;2023-08-20T09:37:58;9.40;;;8.60;;
739;SDS011;354;42.694;23.336;2023-08-20T09:40:23;9.27;;;8.48;;
739;SDS011;354;42.694;23.336;2023-08-20T09:42:48;8.90;;;8.30;;
739;SDS011;354;42.694;23.336;2023-08-20T09:45:14;8.82;;;8.10;;
739;SDS011;354;42.694;23.336;2023-08-20T09:47:39;9.23;;;8.48;;
739;SDS011;354;42.694;23.336;2023-08-20T09:50:06;7.40;;;6.97;;
739;SDS011;354;42.694;23.336;2023-08-20T09:52:38;8.07;;;7.50;;
739;SDS011;354;42.694;23.336;2023-08-20T09:55:08;6.93;;;6.40;;
739;SDS011;354;42.694;23.336;2023-08-20T09:57:34;8.30;;;7.57;;
739;SDS011;354;42.694;23.336;2023-08-20T10:00:00;8.00;;;7.45;;
739;SDS011;354;42.694;23.336;2023-08-20T10:02:26;7.78;;;7.18;;
739;SDS011;354;42.694;23.336;2023-08-20T10:04:51;9.20;;;8.32;;
739;SDS011;354;42.694;23.336;2023-08-20T10:07:17;7.43;;;6.78;;
739;SDS011;354;42.694;23.336;2023-08-20T10:09:42;7.63;;;6.93;;
739;SDS011;354;42.694;23.336;2023-08-20T10:12:10;8.88;;;8.15;;
739;SDS011;354;42.694;23.336;2023-08-20T10:14:36;17.83;;;16.38;;
739;SDS011;354;42.694;23.336;2023-08-20T10:17:05;7.05;;;6.55;;
739;SDS011;354;42.694;23.336;2023-08-20T10:19:31;7.35;;;6.82;;
739;SDS011;354;42.694;23.336;2023-08-20T10:21:56;7.53;;;6.97;;
739;SDS011;354;42.694;23.336;2023-08-20T10:24:23;7.28;;;6.78;;
739;SDS011;354;42.694;23.336;2023-08-20T10:26:48;7.30;;;6.80;;
739;SDS011;354;42.694;23.336;2023-08-20T10:31:58;7.32;;;6.93;;
739;SDS011;354;42.694;23.336;2023-08-20T10:34:33;7.13;;;6.70;;
739;SDS011;354;42.694;23.336;2023-08-20T10:37:01;9.07;;;8.23;;
739;SDS011;354;42.694;23.336;2023-08-20T10:39:26;7.65;;;6.97;;
739;SDS011;354;42.694;23.336;2023-08-20T10:42:07;7.55;;;7.05;;
739;SDS011;354;42.694;23.336;2023-08-20T10:44:56;7.25;;;6.65;;
739;SDS011;354;42.694;23.336;2023-08-20T10:47:21;7.57;;;6.80;;
739;SDS011;354;42.694;23.336;2023-08-20T10:49:50;7.75;;;7.07;;
739;SDS011;354;42.694;23.336;2023-08-20T10:52:17;8.60;;;6.88;;
739;SDS011;354;42.694;23.336;2023-08-20T10:54:42;7.38;;;6.68;;
739;SDS011;354;42.694;23.336;2023-08-20T10:57:07;7.07;;;6.68;;
739;SDS011;354;42.694;23.336;2023-08-20T10:59:33;7.15;;;6.65;;
739;SDS011;354;42.694;23.336;2023-08-20T11:01:59;7.40;;;6.82;;
739;SDS011;354;42.694;23.336;2023-08-20T11:04:29;7.82;;;7.15;;
739;SDS011;354;42.694;23.336;2023-08-20T11:06:57;6.88;;;6.47;;
739;SDS011;354;42.694;23.336;2023-08-20T11:09:23;7.50;;;7.00;;
739;SDS011;354;42.694;23.336;2023-08-20T11:11:49;7.22;;;6.47;;
739;SDS011;354;42.694;23.336;2023-08-20T11:14:15;7.15;;;6.72;;
739;SDS011;354;42.694;23.336;2023-08-20T11:16:41;7.53;;;6.95;;
739;SDS011;354;42.694;23.336;2023-08-20T11:19:06;7.90;;;7.30;;
739;SDS011;354;42.694;23.336;2023-08-20T11:21:34;7.13;;;6.63;;
739;SDS011;354;42.694;23.336;2023-08-20T11:24:00;7.10;;;6.70;;
739;SDS011;354;42.694;23.336;2023-08-20T11:26:25;8.15;;;7.63;;
739;SDS011;354;42.694;23.336;2023-08-20T11:28:50;7.80;;;7.30;;
739;SDS011;354;42.694;23.336;2023-08-20T11:31:16;7.97;;;7.38;;
739;SDS011;354;42.694;23.336;2023-08-20T11:33:41;7.45;;;6.90;;
739;SDS011;354;42.694;23.336;2023-08-20T11:36:06;7.55;;;7.00;;
739;SDS011;354;42.694;23.336;2023-08-20T11:38:32;6.68;;;6.13;;
739;SDS011;354;42.694;23.336;2023-08-20T11:40:57;7.43;;;6.72;;
739;SDS011;354;42.694;23.336;2023-08-20T11:43:24;7.15;;;6.55;;
739;SDS011;354;42.694;23.336;2023-08-20T11:45:49;6.60;;;6.10;;
739;SDS011;354;42.694;23.336;2023-08-20T11:48:15;8.27;;;6.63;;
739;SDS011;354;42.694;23.336;2023-08-20T11:50:40;6.97;;;6.25;;
739;SDS011;354;42.694;23.336;2023-08-20T11:53:07;6.97;;;6.40;;
739;SDS011;354;42.694;23.336;2023-08-20T11:55:33;6.88;;;6.18;;
739;SDS011;354;42.694;23.336;2023-08-20T11:57:58;7.15;;;6.55;;
739;SDS011;354;42.694;23.336;2023-08-20T12:00:27;7.30;;;6.88;;
739;SDS011;354;42.694;23.336;2023-08-20T12:02:53;8.85;;;8.15;;
739;SDS011;354;42.694;23.336;2023-08-20T12:05:19;7.68;;;7.07;;
739;SDS011;354;42.694;23.336;2023-08-20T12:07:54;8.05;;;7.25;;
739;SDS011;354;42.694;23.336;2023-08-20T12:10:20;7.22;;;6.72;;
739;SDS011;354;42.694;23.336;2023-08-20T12:12:47;7.70;;;6.88;;
739;SDS011;354;42.694;23.336;2023-08-20T12:15:12;7.32;;;6.82;;
739;SDS011;354;42.694;23.336;2023-08-20T12:17:38;6.93;;;6.32;;
739;SDS011;354;42.694;23.336;2023-08-20T12:20:03;7.53;;;7.03;;
739;SDS011;354;42.694;23.336;2023-08-20T12:22:37;7.30;;;6.80;;
739;SDS011;354;42.694;23.336;2023-08-20T12:25:02;7.57;;;7.07;;
739;SDS011;354;42.694;23.336;2023-08-20T12:27:28;7.22;;;6.75;;
739;SDS011;354;42.694;23.336;2023-08-20T12:29:54;6.88;;;6.38;;
739;SDS011;354;42.694;23.336;2023-08-20T12:32:19;7.55;;;7.05;;
739;SDS011;354;42.694;23.336;2023-08-20T12:34:44;6.97;;;6.38;;
739;SDS011;354;42.694;23.336;2023-08-20T12:37:09;7.22;;;6.72;;
739;SDS011;354;42.694;23.336;2023-08-20T12:39:34;7.32;;;6.90;;
739;SDS011;354;42.694;23.336;2023-08-20T12:42:00;7.50;;;6.80;;
739;SDS011;354;42.694;23.336;2023-08-20T12:44:25;7.03;;;6.53;;
739;SDS011;354;42.694;23.336;2023-08-20T12:46:50;9.35;;;8.50;;
739;SDS011;354;42.694;23.336;2023-08-20T12:49:16;7.30;;;6.70;;
739;SDS011;354;42.694;23.336;2023-08-20T12:51:42;7.18;;;6.65;;
739;SDS011;354;42.694;23.336;2023-08-20T12:54:07;6.90;;;6.40;;
739;SDS011;354;42.694;23.336;2023-08-20T12:56:32;7.20;;;6.70;;
739;SDS011;354;42.694;23.336;2023-08-20T12:58:58;7.00;;;6.50;;
739;SDS011;354;42.694;23.336;2023-08-20T13:01:23;7.28;;;6.72;;
739;SDS011;354;42.694;23.336;2023-08-20T13:03:49;8.23;;;7.45;;
739;SDS011;354;42.694;23.336;2023-08-20T13:06:15;7.88;;;7.28;;
739;SDS011;354;42.694;23.336;2023-08-20T13:08:40;7.28;;;6.85;;
739;SDS011;354;42.694;23.336;2023-08-20T13:11:07;6.75;;;6.35;;
739;SDS011;354;42.694;23.336;2023-08-20T13:13:33;7.78;;;6.70;;
739;SDS011;354;42.694;23.336;2023-08-20T13:15:59;7.45;;;7.05;;
739;SDS011;354;42.694;23.336;2023-08-20T13:18:25;7.18;;;6.63;;
739;SDS011;354;42.694;23.336;2023-08-20T13:20:51;7.95;;;7.25;;
739;SDS011;354;42.694;23.336;2023-08-20T13:23:17;8.07;;;7.30;;
739;SDS011;354;42.694;23.336;2023-08-20T13:25:42;9.65;;;7.40;;
739;SDS011;354;42.694;23.336;2023-08-20T13:28:08;7.80;;;7.07;;
739;SDS011;354;42.694;23.336;2023-08-20T13:30:33;10.13;;;9.38;;
739;SDS011;354;42.694;23.336;2023-08-20T13:32:58;8.25;;;7.72;;
739;SDS011;354;42.694;23.336;2023-08-20T13:35:24;8.20;;;7.60;;
739;SDS011;354;42.694;23.336;2023-08-20T13:37:49;8.10;;;7.47;;
739;SDS011;354;42.694;23.336;2023-08-20T13:40:14;7.85;;;7.13;;
739;SDS011;354;42.694;23.336;2023-08-20T13:42:39;8.98;;;8.27;;
739;SDS011;354;42.694;23.336;2023-08-20T13:45:05;7.18;;;6.68;;
739;SDS011;354;42.694;23.336;2023-08-20T13:47:30;7.22;;;6.70;;
739;SDS011;354;42.694;23.336;2023-08-20T13:49:56;6.47;;;6.07;;
739;SDS011;354;42.694;23.336;2023-08-20T13:52:21;6.88;;;6.35;;
739;SDS011;354;42.694;23.336;2023-08-20T13:54:47;7.30;;;6.80;;
739;SDS011;354;42.694;23.336;2023-08-20T13:57:12;11.75;;;10.60;;
739;SDS011;354;42.694;23.336;2023-08-20T13:59:37;6.68;;;6.10;;
739;SDS011;354;42.694;23.336;2023-08-20T14:02:03;8.55;;;6.65;;
739;SDS011;354;42.694;23.336;2023-08-20T14:04:29;6.90;;;6.25;;
739;SDS011;354;42.694;23.336;2023-08-20T14:06:54;7.82;;;7.20;;
739;SDS011;354;42.694;23.336;2023-08-20T14:09:19;7.68;;;6.93;;
739;SDS011;354;42.694;23.336;2023-08-20T14:11:45;7.65;;;7.10;;
739;SDS011;354;42.694;23.336;2023-08-20T14:14:11;7.03;;;6.45;;
739;SDS011;354;42.694;23.336;2023-08-20T14:16:36;7.32;;;6.85;;
739;SDS011;354;42.694;23.336;2023-08-20T14:19:01;7.45;;;6.60;;
739;SDS011;354;42.694;23.336;2023-08-20T14:21:26;7.97;;;7.25;;
739;SDS011;354;42.694;23.336;2023-08-20T14:23:52;7.60;;;7.10;;
739;SDS011;354;42.694;23.336;2023-08-20T14:26:17;7.10;;;6.70;;
739;SDS011;354;42.694;23.336;2023-08-20T14:28:42;8.00;;;7.40;;
739;SDS011;354;42.694;23.336;2023-08-20T14:31:08;7.90;;;7.30;;
739;SDS011;354;42.694;23.336;2023-08-20T14:33:34;7.57;;;6.95;;
739;SDS011;354;42.694;23.336;2023-08-20T14:35:59;6.78;;;6.30;;
739;SDS011;354;42.694;23.336;2023-08-20T14:38:24;6.63;;;6.13;;
739;SDS011;354;42.694;23.336;2023-08-20T14:40:49;8.18;;;7.57;;
739;SDS011;354;42.694;23.336;2023-08-20T14:43:14;7.20;;;6.70;;
739;SDS011;354;42.694;23.336;2023-08-20T14:45:40;6.88;;;6.38;;
739;SDS011;354;42.694;23.336;2023-08-20T14:48:05;7.63;;;7.03;;
739;SDS011;354;42.694;23.336;2023-08-20T14:50:31;7.35;;;6.85;;
739;SDS011;354;42.694;23.336;2023-08-20T14:52:56;7.88;;;7.18;;
739;SDS011;354;42.694;23.336;2023-08-20T14:55:21;7.55;;;7.05;;
739;SDS011;354;42.694;23.336;2023-08-20T14:57:47;7.53;;;6.82;;
739;SDS011;354;42.694;23.336;2023-08-20T15:00:13;6.72;;;6.22;;
739;SDS011;354;42.694;23.336;2023-08-20T15:02:41;7.70;;;7.10;;
739;SDS011;354;42.694;23.336;2023-08-20T15:05:07;6.82;;;6.25;;
739;SDS011;354;42.694;23.336;2023-08-20T15:07:32;7.97;;;7.32;;
739;SDS011;354;42.694;23.336;2023-08-20T15:09:57;8.65;;;7.88;;
739;SDS011;354;42.694;23.336;2023-08-20T15:12:23;7.43;;;6.82;;